createdAt,value
2023-05-09T00:00:08.426Z,16.70
2023-05-09T00:01:08.370Z,16.70
2023-05-09T00:02:08.360Z,17.50
2023-05-09T00:03:08.431Z,16.80
2023-05-09T00:04:08.346Z,17.40
2023-05-09T00:05:08.354Z,17.50
2023-05-09T00:06:08.359Z,17.10
2023-05-09T00:07:08.306Z,17.90
2023-05-09T00:08:08.293Z,17.80
2023-05-09T00:09:08.301Z,17.30
2023-05-09T00:10:08.272Z,17.50
2023-05-09T00:11:08.275Z,17.40
2023-05-09T00:12:08.256Z,16.70
2023-05-09T00:13:08.298Z,16.80
2023-05-09T00:14:08.240Z,16.80
2023-05-09T00:15:08.301Z,16.70
2023-05-09T00:16:08.267Z,16.10
2023-05-09T00:17:08.198Z,16.20
2023-05-09T00:18:08.196Z,16.40
2023-05-09T00:19:08.195Z,16.90
2023-05-09T00:20:08.165Z,17.00
2023-05-09T00:21:08.153Z,17.10
2023-05-09T00:22:08.151Z,17.00
2023-05-09T00:23:08.141Z,15.90
2023-05-09T00:24:08.152Z,16.20
2023-05-09T00:25:08.126Z,16.90
2023-05-09T00:26:08.092Z,16.00
2023-05-09T00:27:08.089Z,16.50
2023-05-09T00:28:08.084Z,16.30
2023-05-09T00:29:08.085Z,16.70
2023-05-09T00:30:08.055Z,16.10
2023-05-09T00:31:08.045Z,16.50
2023-05-09T00:32:08.080Z,16.90
2023-05-09T00:33:08.142Z,16.80
2023-05-09T00:34:08.012Z,16.20
2023-05-09T00:35:08.009Z,16.40
2023-05-09T00:36:07.984Z,16.80
2023-05-09T00:37:07.982Z,16.90
2023-05-09T00:38:07.963Z,17.00
2023-05-09T00:39:07.953Z,16.60
2023-05-09T00:40:07.936Z,16.70
2023-05-09T00:41:07.940Z,16.70
2023-05-09T00:42:07.925Z,16.10
2023-05-09T00:43:07.910Z,17.00
2023-05-09T00:44:07.897Z,16.20
2023-05-09T00:45:07.886Z,16.50
2023-05-09T00:46:07.918Z,16.00
2023-05-09T00:47:07.874Z,16.00
2023-05-09T00:48:07.904Z,16.70
2023-05-09T00:49:07.841Z,16.40
2023-05-09T00:50:07.823Z,17.00
2023-05-09T00:51:07.859Z,16.60
2023-05-09T00:52:07.814Z,16.60
2023-05-09T00:53:07.798Z,16.50
2023-05-09T00:54:09.198Z,16.60
2023-05-09T00:55:07.779Z,16.40
2023-05-09T00:56:07.771Z,17.10
2023-05-09T00:57:07.875Z,16.20
2023-05-09T00:58:07.755Z,16.60
2023-05-09T00:59:07.732Z,16.80
2023-05-09T01:00:07.726Z,15.50
2023-05-09T01:01:07.795Z,16.70
2023-05-09T01:02:07.698Z,16.40
2023-05-09T01:03:07.749Z,16.30
2023-05-09T01:04:07.674Z,16.90
2023-05-09T01:05:07.680Z,15.40
2023-05-09T01:06:07.663Z,16.60
2023-05-09T01:07:07.787Z,16.80
2023-05-09T01:08:07.642Z,16.70
2023-05-09T01:09:07.628Z,16.70
2023-05-09T01:10:07.629Z,16.70
2023-05-09T01:11:07.596Z,16.10
2023-05-09T01:12:07.583Z,15.20
2023-05-09T01:13:07.622Z,16.20
2023-05-09T01:14:07.581Z,16.50
2023-05-09T01:15:07.578Z,15.60
2023-05-09T01:16:07.561Z,16.20
2023-05-09T01:17:07.530Z,16.50
2023-05-09T01:18:07.569Z,16.60
2023-05-09T01:19:07.531Z,15.90
2023-05-09T01:20:07.500Z,16.40
2023-05-09T01:21:07.485Z,15.10
2023-05-09T01:22:07.478Z,16.00
2023-05-09T01:23:07.467Z,15.70
2023-05-09T01:24:07.468Z,15.90
2023-05-09T01:25:07.438Z,15.50
2023-05-09T01:26:07.433Z,15.80
2023-05-09T01:27:07.425Z,15.40
2023-05-09T01:28:07.420Z,15.90
2023-05-09T01:29:07.407Z,15.20
2023-05-09T01:30:07.402Z,16.00
2023-05-09T01:31:07.408Z,15.20
2023-05-09T01:32:07.370Z,16.20
2023-05-09T01:33:07.392Z,15.90
2023-05-09T01:34:07.352Z,15.70
2023-05-09T01:35:07.335Z,15.50
2023-05-09T01:36:07.333Z,15.80
2023-05-09T01:37:07.312Z,15.30
2023-05-09T01:38:07.304Z,15.90
2023-05-09T01:39:07.285Z,15.60
2023-05-09T01:40:07.303Z,15.90
2023-05-09T01:41:07.263Z,15.40
2023-05-09T01:42:07.270Z,16.10
2023-05-09T01:43:07.254Z,16.10
2023-05-09T01:44:07.270Z,15.80
2023-05-09T01:45:07.221Z,15.10
2023-05-09T01:46:07.256Z,15.80
2023-05-09T01:47:07.213Z,16.40
2023-05-09T01:48:07.291Z,15.10
2023-05-09T01:49:07.178Z,15.50
2023-05-09T01:50:07.197Z,15.10
2023-05-09T01:51:07.149Z,15.30
2023-05-09T01:52:07.156Z,15.10
2023-05-09T01:53:07.132Z,15.10
2023-05-09T01:54:07.130Z,15.20
2023-05-09T01:55:07.112Z,14.50
2023-05-09T01:56:07.109Z,15.70
2023-05-09T01:57:07.103Z,15.60
2023-05-09T01:58:07.081Z,15.40
2023-05-09T01:59:07.064Z,16.20
2023-05-09T02:00:07.056Z,15.60
2023-05-09T02:01:07.083Z,15.30
2023-05-09T02:02:07.055Z,15.10
2023-05-09T02:03:07.064Z,15.40
2023-05-09T02:04:07.010Z,15.10
2023-05-09T02:05:07.004Z,14.70
2023-05-09T02:06:06.998Z,15.80
2023-05-09T02:07:06.985Z,15.30
2023-05-09T02:08:06.970Z,14.70
2023-05-09T02:09:06.952Z,15.30
2023-05-09T02:10:06.952Z,15.20
2023-05-09T02:11:06.942Z,15.20
2023-05-09T02:12:06.943Z,15.20
2023-05-09T02:13:06.964Z,14.60
2023-05-09T02:14:06.900Z,15.00
2023-05-09T02:15:06.931Z,14.40
2023-05-09T02:16:06.913Z,14.00
2023-05-09T02:17:07.042Z,14.90
2023-05-09T02:18:06.882Z,15.60
2023-05-09T02:19:06.843Z,14.30
2023-05-09T02:20:06.850Z,14.40
2023-05-09T02:21:06.841Z,14.80
2023-05-09T02:22:06.814Z,13.80
2023-05-09T02:23:06.807Z,15.00
2023-05-09T02:24:06.801Z,15.50
2023-05-09T02:25:06.788Z,15.70
2023-05-09T02:26:06.779Z,15.30
2023-05-09T02:27:06.749Z,15.90
2023-05-09T02:28:06.745Z,15.10
2023-05-09T02:29:06.742Z,14.90
2023-05-09T02:30:06.727Z,14.80
2023-05-09T02:31:06.712Z,15.10
2023-05-09T02:32:06.735Z,15.60
2023-05-09T02:33:06.744Z,15.30
2023-05-09T02:34:06.689Z,15.60
2023-05-09T02:35:06.673Z,15.00
2023-05-09T02:36:06.654Z,15.90
2023-05-09T02:37:06.645Z,14.90
2023-05-09T02:38:06.672Z,15.70
2023-05-09T02:39:06.629Z,15.00
2023-05-09T02:40:06.610Z,15.30
2023-05-09T02:41:06.596Z,14.90
2023-05-09T02:42:06.590Z,15.50
2023-05-09T02:43:06.575Z,14.40
2023-05-09T02:44:06.571Z,15.20
2023-05-09T02:45:06.553Z,15.00
2023-05-09T02:46:06.682Z,14.90
2023-05-09T02:47:06.544Z,15.00
2023-05-09T02:48:08.759Z,15.30
2023-05-09T02:49:06.510Z,15.70
2023-05-09T02:50:06.501Z,15.50
2023-05-09T02:51:06.489Z,16.00
2023-05-09T02:52:06.486Z,15.40
2023-05-09T02:53:06.475Z,15.40
2023-05-09T02:54:06.462Z,15.40
2023-05-09T02:55:06.446Z,15.30
2023-05-09T02:56:06.429Z,15.60
2023-05-09T02:57:06.450Z,15.10
2023-05-09T02:58:13.992Z,15.40
2023-05-09T02:59:06.397Z,15.20
2023-05-09T03:00:06.392Z,15.30
2023-05-09T03:01:06.395Z,14.80
2023-05-09T03:02:06.385Z,15.60
2023-05-09T03:03:06.444Z,15.00
2023-05-09T03:04:06.352Z,15.00
2023-05-09T03:05:06.330Z,15.70
2023-05-09T03:06:06.327Z,15.70
2023-05-09T03:07:06.314Z,16.30
2023-05-09T03:08:06.304Z,15.90
2023-05-09T03:09:06.285Z,16.20
2023-05-09T03:10:06.279Z,15.80
2023-05-09T03:11:06.287Z,15.90
2023-05-09T03:12:06.262Z,16.10
2023-05-09T03:13:06.295Z,15.60
2023-05-09T03:14:06.236Z,15.30
2023-05-09T03:15:06.243Z,15.90
2023-05-09T03:16:06.357Z,16.30
2023-05-09T03:17:06.220Z,16.10
2023-05-09T03:18:06.337Z,15.90
2023-05-09T03:19:06.233Z,16.00
2023-05-09T03:20:06.188Z,16.00
2023-05-09T03:21:06.248Z,16.00
2023-05-09T03:22:06.248Z,15.70
2023-05-09T03:23:06.249Z,16.10
2023-05-09T03:24:06.121Z,16.50
2023-05-09T03:25:06.115Z,16.10
2023-05-09T03:26:06.111Z,15.80
2023-05-09T03:27:06.086Z,16.40
2023-05-09T03:28:06.086Z,16.60
2023-05-09T03:29:06.062Z,15.90
2023-05-09T03:30:06.072Z,16.20
2023-05-09T03:31:06.082Z,16.20
2023-05-09T03:32:06.037Z,16.10
2023-05-09T03:33:06.039Z,16.20
2023-05-09T03:34:06.027Z,17.00
2023-05-09T03:35:06.006Z,16.20
2023-05-09T03:36:06.030Z,16.30
2023-05-09T03:37:05.975Z,16.50
2023-05-09T03:38:05.974Z,17.00
2023-05-09T03:39:05.961Z,16.00
2023-05-09T03:40:05.948Z,16.00
2023-05-09T03:41:05.938Z,15.50
2023-05-09T03:42:05.924Z,16.00
2023-05-09T03:43:05.912Z,16.00
2023-05-09T03:44:05.920Z,15.70
2023-05-09T03:45:05.886Z,15.80
2023-05-09T03:46:05.874Z,15.10
2023-05-09T03:47:05.948Z,15.80
2023-05-09T03:48:05.908Z,16.40
2023-05-09T03:49:05.856Z,15.40
2023-05-09T03:50:05.857Z,15.70
2023-05-09T03:51:05.848Z,15.80
2023-05-09T03:52:05.848Z,15.90
2023-05-09T03:53:05.819Z,16.00
2023-05-09T03:54:05.806Z,15.90
2023-05-09T03:55:05.879Z,15.90
2023-05-09T03:56:05.802Z,16.00
2023-05-09T03:57:05.754Z,15.80
2023-05-09T03:58:05.759Z,16.30
2023-05-09T03:59:05.728Z,15.30
2023-05-09T04:00:05.726Z,16.30
2023-05-09T04:01:05.711Z,16.00
2023-05-09T04:02:05.761Z,16.20
2023-05-09T04:03:05.742Z,16.10
2023-05-09T04:04:05.749Z,15.90
2023-05-09T04:05:05.675Z,16.20
2023-05-09T04:06:05.663Z,16.30
2023-05-09T04:07:05.664Z,16.00
2023-05-09T04:08:05.650Z,15.90
2023-05-09T04:09:05.626Z,15.40
2023-05-09T04:10:05.609Z,15.70
2023-05-09T04:11:05.658Z,15.50
2023-05-09T04:12:05.591Z,15.90
2023-05-09T04:13:05.601Z,15.90
2023-05-09T04:14:05.570Z,15.50
2023-05-09T04:15:05.559Z,16.00
2023-05-09T04:16:05.553Z,16.30
2023-05-09T04:17:05.601Z,15.20
2023-05-09T04:18:05.574Z,15.80
2023-05-09T04:19:05.532Z,16.10
2023-05-09T04:20:05.514Z,15.60
2023-05-09T04:21:05.502Z,16.00
2023-05-09T04:22:05.481Z,16.10
2023-05-09T04:23:05.467Z,15.60
2023-05-09T04:24:05.459Z,15.50
2023-05-09T04:25:05.441Z,16.20
2023-05-09T04:26:05.445Z,15.60
2023-05-09T04:27:05.442Z,16.00
2023-05-09T04:28:05.412Z,15.20
2023-05-09T04:29:05.399Z,14.60
2023-05-09T04:30:05.397Z,15.90
2023-05-09T04:31:05.434Z,14.60
2023-05-09T04:32:05.414Z,15.50
2023-05-09T04:33:05.393Z,15.00
2023-05-09T04:34:05.360Z,16.20
2023-05-09T04:35:05.345Z,15.70
2023-05-09T04:36:05.339Z,15.60
2023-05-09T04:37:05.316Z,15.60
2023-05-09T04:38:05.300Z,15.50
2023-05-09T04:39:05.298Z,15.20
2023-05-09T04:40:05.291Z,15.60
2023-05-09T04:41:05.275Z,15.40
2023-05-09T04:42:05.260Z,14.60
2023-05-09T04:43:05.249Z,15.40
2023-05-09T04:44:05.243Z,16.00
2023-05-09T04:45:05.243Z,15.30
2023-05-09T04:46:05.264Z,15.00
2023-05-09T04:47:05.204Z,14.90
2023-05-09T04:48:05.238Z,14.60
2023-05-09T04:49:05.193Z,15.30
2023-05-09T04:50:05.185Z,14.60
2023-05-09T04:51:05.152Z,15.60
2023-05-09T04:52:05.148Z,15.50
2023-05-09T04:53:05.135Z,14.60
2023-05-09T04:54:05.162Z,14.60
2023-05-09T04:55:05.179Z,15.40
2023-05-09T04:56:05.108Z,14.90
2023-05-09T04:57:16.685Z,14.70
2023-05-09T04:58:05.092Z,15.30
2023-05-09T04:59:05.099Z,14.80
2023-05-09T05:00:05.062Z,14.80
2023-05-09T05:01:05.047Z,14.90
2023-05-09T05:02:05.187Z,15.90
2023-05-09T05:03:05.088Z,14.90
2023-05-09T05:04:05.029Z,15.30
2023-05-09T05:05:11.610Z,14.90
2023-05-09T05:06:05.005Z,15.00
2023-05-09T05:07:04.981Z,14.00
2023-05-09T05:08:04.985Z,14.50
2023-05-09T05:09:04.968Z,15.60
2023-05-09T05:10:04.949Z,15.10
2023-05-09T05:11:04.929Z,14.60
2023-05-09T05:12:06.606Z,15.80
2023-05-09T05:13:04.957Z,15.50
2023-05-09T05:14:04.914Z,15.60
2023-05-09T05:15:04.989Z,14.80
2023-05-09T05:16:04.902Z,15.20
2023-05-09T05:17:04.886Z,15.70
2023-05-09T05:18:04.895Z,14.80
2023-05-09T05:19:04.848Z,13.90
2023-05-09T05:20:04.843Z,14.60
2023-05-09T05:21:04.825Z,14.50
2023-05-09T05:22:04.826Z,14.20
2023-05-09T05:23:04.817Z,15.00
2023-05-09T05:24:04.796Z,14.80
2023-05-09T05:25:04.781Z,15.50
2023-05-09T05:26:04.778Z,14.80
2023-05-09T05:27:04.772Z,14.80
2023-05-09T05:28:04.769Z,15.10
2023-05-09T05:29:05.630Z,15.30
2023-05-09T05:30:04.738Z,15.30
2023-05-09T05:31:04.748Z,14.70
2023-05-09T05:32:04.718Z,14.20
2023-05-09T05:33:04.735Z,14.80
2023-05-09T05:34:04.689Z,14.50
2023-05-09T05:35:04.681Z,14.30
2023-05-09T05:36:04.665Z,14.60
2023-05-09T05:37:04.653Z,14.80
2023-05-09T05:38:04.696Z,14.90
2023-05-09T05:39:04.640Z,14.20
2023-05-09T05:40:04.617Z,14.40
2023-05-09T05:41:04.632Z,14.30
2023-05-09T05:42:04.662Z,14.50
2023-05-09T05:43:04.578Z,14.80
2023-05-09T05:44:04.582Z,14.40
2023-05-09T05:45:04.616Z,14.50
2023-05-09T05:46:04.579Z,15.00
2023-05-09T05:47:04.543Z,14.40
2023-05-09T05:48:04.584Z,14.30
2023-05-09T05:49:04.512Z,14.70
2023-05-09T05:50:04.498Z,14.40
2023-05-09T05:51:04.496Z,14.80
2023-05-09T05:52:04.485Z,14.30
2023-05-09T05:53:04.466Z,14.30
2023-05-09T05:54:04.459Z,14.00
2023-05-09T05:55:04.469Z,14.30
2023-05-09T05:56:04.458Z,14.20
2023-05-09T05:57:04.432Z,13.90
2023-05-09T05:58:04.420Z,14.00
2023-05-09T05:59:04.403Z,14.30
2023-05-09T06:00:04.411Z,14.30
2023-05-09T06:01:04.376Z,14.70
2023-05-09T06:02:04.422Z,14.70
2023-05-09T06:03:04.386Z,14.20
2023-05-09T06:04:04.381Z,14.00
2023-05-09T06:05:04.344Z,14.70
2023-05-09T06:06:04.333Z,14.50
2023-05-09T06:07:04.314Z,14.10
2023-05-09T06:08:04.301Z,14.80
2023-05-09T06:09:04.299Z,14.50
2023-05-09T06:10:04.304Z,14.40
2023-05-09T06:11:04.262Z,14.40
2023-05-09T06:12:04.256Z,14.20
2023-05-09T06:13:04.245Z,14.50
2023-05-09T06:14:04.248Z,14.30
2023-05-09T06:15:04.220Z,15.00
2023-05-09T06:16:18.697Z,15.40
2023-05-09T06:17:04.225Z,14.70
2023-05-09T06:18:04.204Z,15.20
2023-05-09T06:19:04.193Z,15.00
2023-05-09T06:20:04.169Z,15.20
2023-05-09T06:21:04.153Z,15.10
2023-05-09T06:22:04.148Z,14.80
2023-05-09T06:23:04.131Z,15.50
2023-05-09T06:24:10.173Z,14.60
2023-05-09T06:25:04.110Z,15.20
2023-05-09T06:26:04.102Z,14.70
2023-05-09T06:27:04.112Z,15.30
2023-05-09T06:28:04.174Z,15.60
2023-05-09T06:29:04.088Z,15.40
2023-05-09T06:30:14.049Z,14.90
2023-05-09T06:31:04.097Z,15.10
2023-05-09T06:32:04.037Z,15.80
2023-05-09T06:33:04.058Z,15.10
2023-05-09T06:34:04.018Z,15.10
2023-05-09T06:35:04.000Z,15.40
2023-05-09T06:36:03.996Z,15.70
2023-05-09T06:37:03.983Z,15.70
2023-05-09T06:38:03.982Z,15.70
2023-05-09T06:39:03.972Z,15.30
2023-05-09T06:40:03.954Z,15.30
2023-05-09T06:41:03.937Z,15.50
2023-05-09T06:42:03.934Z,15.60
2023-05-09T06:43:03.925Z,15.30
2023-05-09T06:44:03.905Z,15.30
2023-05-09T06:45:03.928Z,15.60
2023-05-09T06:46:03.919Z,15.70
2023-05-09T06:47:03.889Z,15.40
2023-05-09T06:48:03.931Z,15.10
2023-05-09T06:49:03.849Z,15.50
2023-05-09T06:50:03.852Z,16.50
2023-05-09T06:51:03.829Z,15.80
2023-05-09T06:52:03.847Z,16.10
2023-05-09T06:53:03.808Z,15.70
2023-05-09T06:54:03.798Z,16.00
2023-05-09T06:55:03.784Z,16.20
2023-05-09T06:56:03.787Z,16.20
2023-05-09T06:57:03.769Z,16.00
2023-05-09T06:58:03.757Z,16.10
2023-05-09T06:59:03.739Z,17.10
2023-05-09T07:00:03.738Z,16.90
2023-05-09T07:01:03.728Z,16.80
2023-05-09T07:02:03.786Z,16.30
2023-05-09T07:03:03.709Z,16.60
2023-05-09T07:04:03.690Z,16.20
2023-05-09T07:05:03.728Z,16.80
2023-05-09T07:06:03.681Z,17.00
2023-05-09T07:07:03.663Z,17.30
2023-05-09T07:08:03.650Z,17.60
2023-05-09T07:09:03.640Z,17.50
2023-05-09T07:10:11.172Z,17.40
2023-05-09T07:11:03.624Z,17.50
2023-05-09T07:12:03.643Z,17.60
2023-05-09T07:13:03.637Z,17.10
2023-05-09T07:14:03.580Z,17.40
2023-05-09T07:15:03.592Z,18.00
2023-05-09T07:16:03.563Z,17.10
2023-05-09T07:17:21.303Z,16.50
2023-05-09T07:18:03.577Z,17.70
2023-05-09T07:19:03.532Z,17.80
2023-05-09T07:20:03.520Z,17.00
2023-05-09T07:21:03.510Z,17.80
2023-05-09T07:22:03.493Z,16.50
2023-05-09T07:23:03.485Z,17.00
2023-05-09T07:24:03.485Z,16.90
2023-05-09T07:25:03.469Z,16.70
2023-05-09T07:26:03.446Z,17.20
2023-05-09T07:27:03.444Z,16.70
2023-05-09T07:28:03.422Z,17.10
2023-05-09T07:29:03.428Z,16.80
2023-05-09T07:30:03.403Z,16.60
2023-05-09T07:31:03.397Z,16.80
2023-05-09T07:32:03.464Z,16.30
2023-05-09T07:33:03.414Z,16.30
2023-05-09T07:34:03.379Z,16.50
2023-05-09T07:35:03.354Z,16.50
2023-05-09T07:36:03.335Z,17.50
2023-05-09T07:37:03.340Z,16.60
2023-05-09T07:38:03.330Z,16.10
2023-05-09T07:39:03.306Z,16.80
2023-05-09T07:40:03.296Z,16.60
2023-05-09T07:41:03.292Z,16.20
2023-05-09T07:42:03.272Z,18.60
2023-05-09T07:43:03.291Z,17.80
2023-05-09T07:44:03.250Z,17.60
2023-05-09T07:45:03.232Z,16.50
2023-05-09T07:46:03.262Z,17.40
2023-05-09T07:47:03.227Z,17.30
2023-05-09T07:48:03.246Z,17.20
2023-05-09T07:49:03.200Z,17.50
2023-05-09T07:50:03.180Z,17.10
2023-05-09T07:51:03.171Z,17.30
2023-05-09T07:52:03.172Z,16.60
2023-05-09T07:53:03.157Z,17.00
2023-05-09T07:54:03.134Z,17.20
2023-05-09T07:55:03.125Z,16.30
2023-05-09T07:56:03.110Z,17.10
2023-05-09T07:57:03.114Z,17.30
2023-05-09T07:58:03.086Z,17.20
2023-05-09T07:59:03.085Z,17.00
2023-05-09T08:00:03.070Z,17.30
2023-05-09T08:01:03.066Z,16.40
2023-05-09T08:02:03.150Z,16.80
2023-05-09T08:03:03.250Z,17.20
2023-05-09T08:04:03.121Z,16.50
2023-05-09T08:05:03.030Z,17.30
2023-05-09T08:06:03.009Z,16.70
2023-05-09T08:07:03.001Z,17.00
2023-05-09T08:08:02.982Z,17.40
2023-05-09T08:09:02.972Z,16.00
2023-05-09T08:10:02.968Z,17.10
2023-05-09T08:11:02.953Z,16.70
2023-05-09T08:12:02.959Z,16.40
2023-05-09T08:13:02.976Z,17.10
2023-05-09T08:14:02.915Z,16.70
2023-05-09T08:15:02.921Z,17.70
2023-05-09T08:16:02.974Z,16.90
2023-05-09T08:17:02.897Z,16.50
2023-05-09T08:18:02.976Z,17.00
2023-05-09T08:19:02.866Z,17.80
2023-05-09T08:20:02.863Z,16.70
2023-05-09T08:21:02.845Z,17.90
2023-05-09T08:22:02.839Z,17.40
2023-05-09T08:23:02.828Z,17.50
2023-05-09T08:24:02.799Z,16.80
2023-05-09T08:25:02.946Z,17.60
2023-05-09T08:26:02.789Z,17.90
2023-05-09T08:27:02.781Z,17.50
2023-05-09T08:28:02.762Z,16.90
2023-05-09T08:29:02.763Z,16.70
2023-05-09T08:30:02.752Z,17.00
2023-05-09T08:31:02.790Z,17.50
2023-05-09T08:32:02.739Z,16.90
2023-05-09T08:33:02.760Z,17.90
2023-05-09T08:34:02.716Z,16.70
2023-05-09T08:35:02.687Z,17.00
2023-05-09T08:36:02.728Z,17.50
2023-05-09T08:37:02.662Z,16.80
2023-05-09T08:38:02.661Z,16.60
2023-05-09T08:39:02.655Z,17.10
2023-05-09T08:40:02.636Z,16.60
2023-05-09T08:41:02.622Z,16.70
2023-05-09T08:42:02.611Z,16.60
2023-05-09T08:43:02.618Z,17.10
2023-05-09T08:44:02.610Z,16.30
2023-05-09T08:45:02.575Z,17.80
2023-05-09T08:46:02.594Z,16.40
2023-05-09T08:47:02.609Z,16.40
2023-05-09T08:48:02.656Z,16.60
2023-05-09T08:49:02.529Z,16.50
2023-05-09T08:50:02.520Z,15.30
2023-05-09T08:51:02.511Z,16.00
2023-05-09T08:52:02.507Z,16.60
2023-05-09T08:53:02.505Z,16.10
2023-05-09T08:54:02.503Z,16.20
2023-05-09T08:55:02.470Z,15.90
2023-05-09T08:56:02.477Z,16.40
2023-05-09T08:57:02.456Z,16.60
2023-05-09T08:58:02.445Z,16.70
2023-05-09T08:59:02.427Z,16.70
2023-05-09T09:00:02.415Z,16.30
2023-05-09T09:01:02.461Z,16.10
2023-05-09T09:02:02.476Z,15.60
2023-05-09T09:03:02.461Z,15.50
2023-05-09T09:04:02.372Z,15.50
2023-05-09T09:05:02.432Z,15.80
2023-05-09T09:06:02.367Z,15.90
2023-05-09T09:07:02.343Z,15.90
2023-05-09T09:08:02.392Z,16.50
2023-05-09T09:09:02.316Z,16.10
2023-05-09T09:10:02.305Z,15.80
2023-05-09T09:11:02.326Z,16.50
2023-05-09T09:12:02.294Z,16.20
2023-05-09T09:13:02.289Z,15.30
2023-05-09T09:14:02.260Z,16.00
2023-05-09T09:15:02.248Z,16.00
2023-05-09T09:16:02.284Z,16.30
2023-05-09T09:17:02.233Z,15.50
2023-05-09T09:18:02.239Z,15.50
2023-05-09T09:19:02.202Z,15.00
2023-05-09T09:20:02.216Z,15.10
2023-05-09T09:21:02.184Z,15.30
2023-05-09T09:22:02.174Z,15.20
2023-05-09T09:23:02.166Z,15.10
2023-05-09T09:24:02.157Z,15.70
2023-05-09T09:25:02.156Z,15.30
2023-05-09T09:26:02.256Z,15.80
2023-05-09T09:27:02.116Z,16.40
2023-05-09T09:28:02.116Z,15.80
2023-05-09T09:29:02.092Z,15.30
2023-05-09T09:30:02.096Z,15.50
2023-05-09T09:31:02.081Z,15.60
2023-05-09T09:32:02.105Z,15.70
2023-05-09T09:33:02.068Z,16.10
2023-05-09T09:34:02.064Z,15.80
2023-05-09T09:35:02.048Z,15.20
2023-05-09T09:36:02.022Z,15.30
2023-05-09T09:37:02.015Z,15.70
2023-05-09T09:38:02.024Z,15.60
2023-05-09T09:39:01.999Z,16.10
2023-05-09T09:40:01.983Z,15.50
2023-05-09T09:41:01.961Z,15.80
2023-05-09T09:42:01.954Z,15.60
2023-05-09T09:43:01.939Z,15.30
2023-05-09T09:44:01.953Z,16.00
2023-05-09T09:45:01.911Z,15.50
2023-05-09T09:46:01.925Z,15.10
2023-05-09T09:47:01.895Z,15.40
2023-05-09T09:48:01.927Z,14.90
2023-05-09T09:49:01.889Z,14.10
2023-05-09T09:50:01.881Z,14.70
2023-05-09T09:51:01.851Z,14.50
2023-05-09T09:52:01.842Z,15.30
2023-05-09T09:53:01.841Z,14.10
2023-05-09T09:54:01.835Z,14.80
2023-05-09T09:55:01.809Z,14.80
2023-05-09T09:56:01.800Z,14.50
2023-05-09T09:57:01.782Z,14.80
2023-05-09T09:58:01.818Z,14.40
2023-05-09T09:59:01.761Z,14.60
2023-05-09T10:00:01.799Z,14.50
2023-05-09T10:01:01.802Z,14.10
2023-05-09T10:02:04.162Z,13.80
2023-05-09T10:03:01.792Z,13.30
2023-05-09T10:04:01.790Z,13.20
2023-05-09T10:05:01.715Z,14.00
2023-05-09T10:06:01.699Z,13.60
2023-05-09T10:07:01.689Z,13.80
2023-05-09T10:08:01.664Z,13.60
2023-05-09T10:09:01.666Z,13.10
2023-05-09T10:10:01.647Z,12.80
2023-05-09T10:11:01.632Z,13.10
2023-05-09T10:12:01.645Z,13.70
2023-05-09T10:13:01.670Z,14.10
2023-05-09T10:14:01.597Z,13.40
2023-05-09T10:15:01.611Z,13.90
2023-05-09T10:16:01.680Z,13.10
2023-05-09T10:17:01.629Z,13.60
2023-05-09T10:18:01.795Z,13.90
2023-05-09T10:19:01.593Z,13.10
2023-05-09T10:20:01.529Z,12.30
2023-05-09T10:21:01.668Z,12.40
2023-05-09T10:22:01.509Z,13.10
2023-05-09T10:23:01.522Z,12.70
2023-05-09T10:24:01.483Z,12.30
2023-05-09T10:25:01.479Z,13.10
2023-05-09T10:26:01.474Z,12.20
2023-05-09T10:27:01.465Z,13.00
2023-05-09T10:28:01.449Z,12.50
2023-05-09T10:29:01.431Z,12.50
2023-05-09T10:30:01.428Z,12.10
2023-05-09T10:31:01.432Z,12.20
2023-05-09T10:32:01.393Z,12.80
2023-05-09T10:33:01.429Z,12.30
2023-05-09T10:34:01.391Z,12.30
2023-05-09T10:35:01.375Z,12.20
2023-05-09T10:36:01.347Z,12.70
2023-05-09T10:37:01.342Z,12.90
2023-05-09T10:38:01.332Z,12.50
2023-05-09T10:39:01.322Z,12.70
2023-05-09T10:40:01.319Z,12.50
2023-05-09T10:41:01.308Z,12.90
2023-05-09T10:42:01.293Z,13.00
2023-05-09T10:43:01.282Z,12.60
2023-05-09T10:44:01.272Z,11.80
2023-05-09T10:45:01.265Z,12.10
2023-05-09T10:46:01.243Z,11.70
2023-05-09T10:47:01.299Z,12.80
2023-05-09T10:48:01.290Z,12.20
2023-05-09T10:49:01.224Z,12.20
2023-05-09T10:50:01.196Z,12.70
2023-05-09T10:51:01.187Z,12.70
2023-05-09T10:52:01.175Z,13.30
2023-05-09T10:53:01.165Z,13.10
2023-05-09T10:54:01.159Z,12.40
2023-05-09T10:55:01.169Z,12.40
2023-05-09T10:56:01.125Z,12.40
2023-05-09T10:57:01.123Z,12.10
2023-05-09T10:58:01.134Z,12.00
2023-05-09T10:59:01.110Z,12.40
2023-05-09T11:00:01.122Z,12.50
2023-05-09T11:01:01.073Z,12.00
2023-05-09T11:02:01.263Z,11.80
2023-05-09T11:03:01.092Z,11.60
2023-05-09T11:04:01.107Z,12.30
2023-05-09T11:05:01.049Z,11.90
2023-05-09T11:06:01.020Z,11.60
2023-05-09T11:07:01.009Z,11.50
2023-05-09T11:08:01.015Z,12.00
2023-05-09T11:09:00.988Z,12.30
2023-05-09T11:10:00.998Z,11.90
2023-05-09T11:11:00.972Z,12.50
2023-05-09T11:12:00.962Z,12.90
2023-05-09T11:13:00.999Z,12.50
2023-05-09T11:14:00.937Z,12.90
2023-05-09T11:15:00.927Z,12.30
2023-05-09T11:16:00.999Z,11.60
2023-05-09T11:17:00.909Z,12.70
2023-05-09T11:18:00.900Z,12.50
2023-05-09T11:19:00.899Z,12.10
2023-05-09T11:20:00.868Z,12.00
2023-05-09T11:21:00.861Z,12.10
2023-05-09T11:22:00.859Z,13.00
2023-05-09T11:23:00.840Z,12.40
2023-05-09T11:24:00.825Z,12.50
2023-05-09T11:25:00.826Z,11.90
2023-05-09T11:26:00.820Z,12.30
2023-05-09T11:27:00.818Z,11.70
2023-05-09T11:28:00.783Z,12.60
2023-05-09T11:29:00.808Z,12.50
2023-05-09T11:30:00.868Z,12.50
2023-05-09T11:31:00.813Z,12.30
2023-05-09T11:32:00.800Z,11.70
2023-05-09T11:33:00.831Z,12.00
2023-05-09T11:34:00.714Z,11.30
2023-05-09T11:35:00.708Z,11.90
2023-05-09T11:36:00.704Z,11.60
2023-05-09T11:37:00.686Z,11.80
2023-05-09T11:38:00.672Z,11.50
2023-05-09T11:39:00.666Z,12.10
2023-05-09T11:40:00.668Z,12.50
2023-05-09T11:41:00.663Z,12.70
2023-05-09T11:42:00.626Z,11.60
2023-05-09T11:43:00.617Z,11.30
2023-05-09T11:44:00.621Z,12.00
2023-05-09T11:45:00.610Z,11.90
2023-05-09T11:46:00.623Z,12.30
2023-05-09T11:47:00.593Z,11.80
2023-05-09T11:48:00.656Z,12.30
2023-05-09T11:49:00.559Z,12.10
2023-05-09T11:50:00.582Z,11.60
2023-05-09T11:51:00.538Z,11.90
2023-05-09T11:52:00.519Z,12.50
2023-05-09T11:53:00.523Z,13.50
2023-05-09T11:54:00.504Z,12.20
2023-05-09T11:55:00.507Z,12.30
2023-05-09T11:56:00.470Z,12.20
2023-05-09T11:57:00.488Z,12.40
2023-05-09T11:58:00.456Z,11.80
2023-05-09T11:59:00.457Z,11.80
2023-05-09T12:00:00.443Z,11.60
2023-05-09T12:01:00.434Z,12.40
2023-05-09T12:02:00.437Z,12.10
2023-05-09T12:03:00.501Z,11.70
2023-05-09T12:04:00.472Z,10.70
2023-05-09T12:05:00.378Z,11.70
2023-05-09T12:06:00.369Z,13.60
2023-05-09T12:07:00.362Z,11.80
2023-05-09T12:08:00.352Z,11.90
2023-05-09T12:09:00.342Z,12.30
2023-05-09T12:10:00.318Z,12.10
2023-05-09T12:11:00.332Z,10.90
2023-05-09T12:12:00.299Z,11.70
2023-05-09T12:13:00.333Z,11.80
2023-05-09T12:14:00.282Z,12.10
2023-05-09T12:15:00.290Z,12.30
2023-05-09T12:16:00.329Z,11.80
2023-05-09T12:17:00.250Z,12.00
2023-05-09T12:18:00.293Z,11.30
2023-05-09T12:19:00.226Z,10.40
2023-05-09T12:20:00.210Z,10.50
2023-05-09T12:21:00.215Z,10.90
2023-05-09T12:22:00.191Z,11.20
2023-05-09T12:23:00.189Z,10.10
2023-05-09T12:24:00.175Z,10.90
2023-05-09T12:25:00.166Z,10.60
2023-05-09T12:26:00.187Z,10.80
2023-05-09T12:27:00.177Z,10.30
2023-05-09T12:28:00.180Z,11.10
2023-05-09T12:29:00.170Z,10.40
2023-05-09T12:30:00.152Z,10.90
2023-05-09T12:31:00.162Z,11.10
2023-05-09T12:32:00.113Z,11.10
2023-05-09T12:33:00.136Z,11.20
2023-05-09T12:34:00.138Z,11.00
2023-05-09T12:35:00.051Z,11.50
2023-05-09T12:36:00.067Z,11.70
2023-05-09T12:37:00.054Z,10.80
2023-05-09T12:38:00.027Z,10.00
2023-05-09T12:39:00.011Z,10.00
2023-05-09T12:40:00.040Z,9.80
2023-05-09T12:41:01.554Z,9.70
2023-05-09T12:42:02.048Z,9.00
2023-05-09T12:42:59.965Z,9.00
2023-05-09T12:43:59.952Z,8.00
2023-05-09T12:44:59.960Z,8.00
2023-05-09T12:45:59.941Z,8.50
2023-05-09T12:46:59.996Z,8.00
2023-05-09T12:47:59.927Z,7.80
2023-05-09T12:48:59.901Z,7.90
2023-05-09T12:49:59.906Z,8.40
2023-05-09T12:50:59.880Z,8.30
2023-05-09T12:52:01.670Z,7.70
2023-05-09T12:53:03.404Z,8.00